Guelph, North Dakota
Current Conditions -  °F | °C
As of 9:15 AM on Wednesday 22 Oct 2014 (Local Time) from KGWR Reporting Station
Clear Clear  
Wind Chill: 57°   Ceiling: Unl
Heat Index: 57°   Visibility: 10mi
Dew Point: 46°   Wind: 15mph
Humidity: 67%   Direction: 180°S
Pressure: 29.86"   Gusts: NA
Location:  46.1099°N, 98.1335°W
Report Text: KGWR 221415Z AUTO 18013KT 10SM CLR 14/08 A2986 RMK A01 P000
Loading
Personal Weather Stations






























Interactive Weather Map
Tropical Storm Tracking
New forecast layout! Learn more

10-Day Weather Forecast

Advertisements
Track Severe Weather on mobile